UKLR/RWN METAR and TAF weather

Enter ICAO airport designator
Station Type Date Time Source
UKLR METAR 2019/04/23 04:00 UTC NOAA

UKLR 230400Z 11004MPS CAVOK 03/M03 Q1027 NOSIG


Station Type Date Time Source
UKLR Decoded METAR 2019/04/23 04:00 UTC NOAA

Rivne, Ukraine (UKLR) 50-35N 026-08E
Apr 23, 2019 - 12:00 AM EDT / 2019.04.23 0400 UTC
Wind: from the ESE (110 degrees) at 9 MPH (8 KT):0
Visibility: greater than 7 mile(s):0
Temperature: 37 F (3 C)
Dew Point: 26 F (-3 C)
Relative Humidity: 64%
Pressure (altimeter): 30.33 in. Hg (1027 hPa)
ob: UKLR 230400Z 11004MPS CAVOK 03/M03 Q1027 NOSIG
cycle: 4

Station Type Date Time Source
UKLR TAF 2019/01/25 06:18 UTC NOAA

TAF TAF UKLR 250512Z 2506/2615 09007G12MPS 9999 BKN010
TEMPO 2606/2615 12009G14MPS 2100 -SN BLSN BKN005

Example: see airport list